Hardin, Montana
Current Conditions -  °F | °C
As of 12:53 AM on Saturday 25 Oct 2014 (Local Time) from KBIL Reporting Station
Clear Clear  
Wind Chill: 41°   Ceiling: Unl
Heat Index: 44°   Visibility: 10mi
Dew Point: 34°   Wind: 6mph
Humidity: 68%   Direction: 360°N
Pressure: 30.1"   Gusts: NA
Location:  45.73°N, 107.61°W
Report Text: KBIL 250653Z 36005KT 10SM CLR 07/01 A3010 RMK AO2 SLP191 T00670011 401670056 $
Loading
Personal Weather Stations






























Interactive Weather Map
Tropical Storm Tracking
New forecast layout! Learn more

10-Day Weather Forecast

Advertisements
Track Severe Weather on mobile